sensor_id;sensor_type;location;lat;lon;timestamp;P1;durP1;ratioP1;P2;durP2;ratioP2
3543;SDS011;1786;52.870;9.578;2024-03-23T00:51:37;19.57;;;4.23;;
3543;SDS011;1786;52.870;9.578;2024-03-23T00:54:03;18.27;;;3.97;;
3543;SDS011;1786;52.870;9.578;2024-03-23T00:56:29;17.93;;;3.43;;
3543;SDS011;1786;52.870;9.578;2024-03-23T00:58:55;20.20;;;3.67;;
3543;SDS011;1786;52.870;9.578;2024-03-23T01:01:21;15.97;;;4.00;;
3543;SDS011;1786;52.870;9.578;2024-03-23T01:03:46;14.03;;;3.30;;
3543;SDS011;1786;52.870;9.578;2024-03-23T01:06:12;24.60;;;4.00;;
3543;SDS011;1786;52.870;9.578;2024-03-23T01:08:38;28.13;;;5.80;;
3543;SDS011;1786;52.870;9.578;2024-03-23T01:11:04;16.60;;;4.50;;
3543;SDS011;1786;52.870;9.578;2024-03-23T01:13:30;12.57;;;4.27;;
3543;SDS011;1786;52.870;9.578;2024-03-23T01:15:56;20.07;;;4.00;;
3543;SDS011;1786;52.870;9.578;2024-03-23T01:18:22;14.13;;;3.63;;
3543;SDS011;1786;52.870;9.578;2024-03-23T01:20:49;14.77;;;4.20;;
3543;SDS011;1786;52.870;9.578;2024-03-23T01:23:15;13.73;;;4.07;;
3543;SDS011;1786;52.870;9.578;2024-03-23T01:25:40;21.03;;;4.13;;
3543;SDS011;1786;52.870;9.578;2024-03-23T01:28:06;15.30;;;3.67;;
3543;SDS011;1786;52.870;9.578;2024-03-23T01:30:33;17.87;;;4.97;;
3543;SDS011;1786;52.870;9.578;2024-03-23T01:32:59;17.90;;;3.20;;
3543;SDS011;1786;52.870;9.578;2024-03-23T01:35:25;16.70;;;3.53;;
3543;SDS011;1786;52.870;9.578;2024-03-23T01:37:50;26.33;;;4.03;;
3543;SDS011;1786;52.870;9.578;2024-03-23T01:40:16;23.73;;;4.30;;
3543;SDS011;1786;52.870;9.578;2024-03-23T01:42:42;16.33;;;4.13;;
3543;SDS011;1786;52.870;9.578;2024-03-23T01:45:08;13.23;;;4.20;;
3543;SDS011;1786;52.870;9.578;2024-03-23T01:47:37;22.23;;;4.10;;
3543;SDS011;1786;52.870;9.578;2024-03-23T01:50:03;16.47;;;3.90;;
3543;SDS011;1786;52.870;9.578;2024-03-23T01:52:29;20.33;;;4.00;;
3543;SDS011;1786;52.870;9.578;2024-03-23T01:54:55;19.07;;;3.40;;
3543;SDS011;1786;52.870;9.578;2024-03-23T01:57:21;18.23;;;3.80;;
3543;SDS011;1786;52.870;9.578;2024-03-23T01:59:47;15.20;;;3.37;;
3543;SDS011;1786;52.870;9.578;2024-03-23T02:02:22;14.37;;;3.20;;
3543;SDS011;1786;52.870;9.578;2024-03-23T02:04:48;15.03;;;4.17;;
3543;SDS011;1786;52.870;9.578;2024-03-23T02:07:13;15.27;;;3.63;;
3543;SDS011;1786;52.870;9.578;2024-03-23T02:09:39;16.00;;;3.20;;
3543;SDS011;1786;52.870;9.578;2024-03-23T02:12:05;9.97;;;3.10;;
3543;SDS011;1786;52.870;9.578;2024-03-23T02:14:31;11.17;;;3.40;;
3543;SDS011;1786;52.870;9.578;2024-03-23T02:16:57;11.97;;;3.47;;
3543;SDS011;1786;52.870;9.578;2024-03-23T02:19:23;12.80;;;3.17;;
3543;SDS011;1786;52.870;9.578;2024-03-23T02:21:49;11.27;;;3.10;;
3543;SDS011;1786;52.870;9.578;2024-03-23T02:24:15;27.63;;;3.87;;
3543;SDS011;1786;52.870;9.578;2024-03-23T02:26:41;10.13;;;3.00;;
3543;SDS011;1786;52.870;9.578;2024-03-23T02:29:06;18.73;;;3.80;;
3543;SDS011;1786;52.870;9.578;2024-03-23T02:31:32;6.37;;;3.37;;
3543;SDS011;1786;52.870;9.578;2024-03-23T02:33:58;8.87;;;2.97;;
3543;SDS011;1786;52.870;9.578;2024-03-23T02:36:23;12.53;;;3.80;;
3543;SDS011;1786;52.870;9.578;2024-03-23T02:38:49;9.90;;;3.47;;
3543;SDS011;1786;52.870;9.578;2024-03-23T02:41:15;17.03;;;4.57;;
3543;SDS011;1786;52.870;9.578;2024-03-23T02:43:41;12.87;;;3.77;;
3543;SDS011;1786;52.870;9.578;2024-03-23T02:46:06;10.97;;;3.53;;
3543;SDS011;1786;52.870;9.578;2024-03-23T02:48:32;13.87;;;3.30;;
3543;SDS011;1786;52.870;9.578;2024-03-23T02:50:58;16.83;;;4.40;;
3543;SDS011;1786;52.870;9.578;2024-03-23T02:53:24;29.03;;;3.90;;
3543;SDS011;1786;52.870;9.578;2024-03-23T02:55:50;24.13;;;4.97;;
3543;SDS011;1786;52.870;9.578;2024-03-23T02:58:15;24.40;;;4.87;;
3543;SDS011;1786;52.870;9.578;2024-03-23T03:00:41;26.40;;;4.70;;
3543;SDS011;1786;52.870;9.578;2024-03-23T03:03:07;22.07;;;5.17;;
3543;SDS011;1786;52.870;9.578;2024-03-23T03:05:33;17.10;;;3.47;;
3543;SDS011;1786;52.870;9.578;2024-03-23T03:07:59;20.27;;;3.90;;
3543;SDS011;1786;52.870;9.578;2024-03-23T03:10:24;15.13;;;3.33;;
3543;SDS011;1786;52.870;9.578;2024-03-23T03:12:50;12.93;;;3.10;;
3543;SDS011;1786;52.870;9.578;2024-03-23T03:15:16;13.87;;;3.47;;
3543;SDS011;1786;52.870;9.578;2024-03-23T03:17:41;18.67;;;4.90;;
3543;SDS011;1786;52.870;9.578;2024-03-23T03:20:07;15.53;;;3.70;;
3543;SDS011;1786;52.870;9.578;2024-03-23T03:22:38;11.67;;;3.30;;
3543;SDS011;1786;52.870;9.578;2024-03-23T03:25:05;16.23;;;4.07;;
3543;SDS011;1786;52.870;9.578;2024-03-23T03:27:32;14.90;;;3.30;;
3543;SDS011;1786;52.870;9.578;2024-03-23T03:29:59;14.87;;;3.87;;
3543;SDS011;1786;52.870;9.578;2024-03-23T03:32:30;15.43;;;3.33;;
3543;SDS011;1786;52.870;9.578;2024-03-23T03:34:56;29.17;;;4.47;;
3543;SDS011;1786;52.870;9.578;2024-03-23T03:37:21;18.90;;;3.37;;
3543;SDS011;1786;52.870;9.578;2024-03-23T03:39:47;9.13;;;3.40;;
3543;SDS011;1786;52.870;9.578;2024-03-23T03:42:13;10.70;;;3.33;;
3543;SDS011;1786;52.870;9.578;2024-03-23T03:44:38;20.90;;;4.20;;
3543;SDS011;1786;52.870;9.578;2024-03-23T03:47:05;15.63;;;3.70;;
3543;SDS011;1786;52.870;9.578;2024-03-23T03:49:31;17.67;;;3.70;;
3543;SDS011;1786;52.870;9.578;2024-03-23T03:51:57;19.40;;;3.30;;
3543;SDS011;1786;52.870;9.578;2024-03-23T03:54:22;12.30;;;3.20;;
3543;SDS011;1786;52.870;9.578;2024-03-23T03:56:48;26.13;;;3.53;;
3543;SDS011;1786;52.870;9.578;2024-03-23T03:59:14;10.20;;;3.57;;
3543;SDS011;1786;52.870;9.578;2024-03-23T04:01:41;12.20;;;3.23;;
3543;SDS011;1786;52.870;9.578;2024-03-23T04:04:06;23.20;;;4.50;;
3543;SDS011;1786;52.870;9.578;2024-03-23T04:06:32;15.73;;;3.37;;
3543;SDS011;1786;52.870;9.578;2024-03-23T04:08:58;16.47;;;3.97;;
3543;SDS011;1786;52.870;9.578;2024-03-23T04:11:24;13.17;;;3.77;;
3543;SDS011;1786;52.870;9.578;2024-03-23T04:13:50;17.40;;;3.93;;
3543;SDS011;1786;52.870;9.578;2024-03-23T04:19:07;11.83;;;2.97;;
3543;SDS011;1786;52.870;9.578;2024-03-23T04:21:33;11.80;;;3.50;;
3543;SDS011;1786;52.870;9.578;2024-03-23T04:23:59;11.80;;;4.07;;
3543;SDS011;1786;52.870;9.578;2024-03-23T04:26:25;16.17;;;4.30;;
3543;SDS011;1786;52.870;9.578;2024-03-23T04:28:51;14.07;;;3.50;;
3543;SDS011;1786;52.870;9.578;2024-03-23T04:31:16;16.37;;;3.83;;
3543;SDS011;1786;52.870;9.578;2024-03-23T04:33:42;9.60;;;2.90;;
3543;SDS011;1786;52.870;9.578;2024-03-23T04:36:08;13.23;;;3.23;;
3543;SDS011;1786;52.870;9.578;2024-03-23T04:38:34;14.80;;;3.63;;
3543;SDS011;1786;52.870;9.578;2024-03-23T04:41:00;24.60;;;3.80;;
3543;SDS011;1786;52.870;9.578;2024-03-23T04:43:27;16.20;;;3.90;;
3543;SDS011;1786;52.870;9.578;2024-03-23T04:45:53;10.13;;;3.67;;
3543;SDS011;1786;52.870;9.578;2024-03-23T04:48:21;15.03;;;4.13;;
3543;SDS011;1786;52.870;9.578;2024-03-23T04:50:48;23.13;;;4.13;;
3543;SDS011;1786;52.870;9.578;2024-03-23T04:53:15;28.13;;;4.00;;
3543;SDS011;1786;52.870;9.578;2024-03-23T04:55:41;11.77;;;4.27;;
3543;SDS011;1786;52.870;9.578;2024-03-23T04:58:08;24.67;;;4.80;;
3543;SDS011;1786;52.870;9.578;2024-03-23T05:00:34;19.73;;;4.93;;
3543;SDS011;1786;52.870;9.578;2024-03-23T05:03:00;15.87;;;4.40;;
3543;SDS011;1786;52.870;9.578;2024-03-23T05:05:26;18.53;;;4.03;;
3543;SDS011;1786;52.870;9.578;2024-03-23T05:07:52;22.97;;;4.30;;
3543;SDS011;1786;52.870;9.578;2024-03-23T05:10:17;26.83;;;4.90;;
3543;SDS011;1786;52.870;9.578;2024-03-23T05:12:43;13.37;;;4.20;;
3543;SDS011;1786;52.870;9.578;2024-03-23T05:15:11;14.03;;;3.10;;
3543;SDS011;1786;52.870;9.578;2024-03-23T05:17:37;18.70;;;4.27;;
3543;SDS011;1786;52.870;9.578;2024-03-23T05:20:04;11.93;;;3.50;;
3543;SDS011;1786;52.870;9.578;2024-03-23T05:22:35;17.83;;;4.60;;
3543;SDS011;1786;52.870;9.578;2024-03-23T05:25:01;13.13;;;2.87;;
3543;SDS011;1786;52.870;9.578;2024-03-23T05:27:31;12.57;;;3.97;;
3543;SDS011;1786;52.870;9.578;2024-03-23T05:29:59;11.73;;;3.10;;
3543;SDS011;1786;52.870;9.578;2024-03-23T05:32:24;15.03;;;3.07;;
3543;SDS011;1786;52.870;9.578;2024-03-23T05:34:50;25.87;;;4.33;;
3543;SDS011;1786;52.870;9.578;2024-03-23T05:37:21;15.53;;;4.40;;
3543;SDS011;1786;52.870;9.578;2024-03-23T05:39:48;17.93;;;4.47;;
3543;SDS011;1786;52.870;9.578;2024-03-23T05:42:18;24.37;;;4.80;;
3543;SDS011;1786;52.870;9.578;2024-03-23T05:44:44;24.03;;;4.87;;
3543;SDS011;1786;52.870;9.578;2024-03-23T05:47:11;18.90;;;4.63;;
3543;SDS011;1786;52.870;9.578;2024-03-23T05:49:40;17.50;;;3.67;;
3543;SDS011;1786;52.870;9.578;2024-03-23T05:52:10;28.37;;;3.90;;
3543;SDS011;1786;52.870;9.578;2024-03-23T05:54:36;14.97;;;3.47;;
3543;SDS011;1786;52.870;9.578;2024-03-23T05:57:02;9.97;;;3.50;;
3543;SDS011;1786;52.870;9.578;2024-03-23T05:59:28;21.20;;;4.17;;
3543;SDS011;1786;52.870;9.578;2024-03-23T06:01:54;13.53;;;3.37;;
3543;SDS011;1786;52.870;9.578;2024-03-23T06:04:20;25.47;;;3.53;;
3543;SDS011;1786;52.870;9.578;2024-03-23T06:06:48;23.17;;;3.60;;
3543;SDS011;1786;52.870;9.578;2024-03-23T06:09:14;22.17;;;3.40;;
3543;SDS011;1786;52.870;9.578;2024-03-23T06:11:40;12.50;;;4.20;;
3543;SDS011;1786;52.870;9.578;2024-03-23T06:14:05;17.23;;;3.33;;
3543;SDS011;1786;52.870;9.578;2024-03-23T06:16:31;9.47;;;3.93;;
3543;SDS011;1786;52.870;9.578;2024-03-23T06:18:57;15.50;;;4.23;;
3543;SDS011;1786;52.870;9.578;2024-03-23T06:21:24;12.87;;;3.47;;
3543;SDS011;1786;52.870;9.578;2024-03-23T06:23:53;10.80;;;3.07;;
3543;SDS011;1786;52.870;9.578;2024-03-23T06:26:19;14.63;;;3.63;;
3543;SDS011;1786;52.870;9.578;2024-03-23T06:28:46;10.00;;;3.00;;
3543;SDS011;1786;52.870;9.578;2024-03-23T06:31:12;20.17;;;4.10;;
3543;SDS011;1786;52.870;9.578;2024-03-23T06:33:38;17.90;;;4.20;;
3543;SDS011;1786;52.870;9.578;2024-03-23T06:36:04;21.90;;;3.57;;
3543;SDS011;1786;52.870;9.578;2024-03-23T06:38:31;24.23;;;4.20;;
3543;SDS011;1786;52.870;9.578;2024-03-23T06:40:56;15.13;;;4.80;;
3543;SDS011;1786;52.870;9.578;2024-03-23T06:43:23;15.53;;;3.40;;
3543;SDS011;1786;52.870;9.578;2024-03-23T06:45:53;19.30;;;3.80;;
3543;SDS011;1786;52.870;9.578;2024-03-23T06:48:20;26.50;;;3.73;;
3543;SDS011;1786;52.870;9.578;2024-03-23T06:50:46;23.33;;;3.43;;
3543;SDS011;1786;52.870;9.578;2024-03-23T06:53:12;14.00;;;3.83;;
3543;SDS011;1786;52.870;9.578;2024-03-23T06:55:38;14.17;;;4.73;;
3543;SDS011;1786;52.870;9.578;2024-03-23T06:58:04;17.67;;;3.57;;
3543;SDS011;1786;52.870;9.578;2024-03-23T07:00:30;11.10;;;3.87;;
3543;SDS011;1786;52.870;9.578;2024-03-23T07:02:56;19.50;;;4.20;;
3543;SDS011;1786;52.870;9.578;2024-03-23T07:05:22;18.60;;;4.50;;
3543;SDS011;1786;52.870;9.578;2024-03-23T07:07:47;19.90;;;4.03;;
3543;SDS011;1786;52.870;9.578;2024-03-23T07:10:13;20.60;;;4.27;;
3543;SDS011;1786;52.870;9.578;2024-03-23T07:12:39;14.07;;;3.77;;
3543;SDS011;1786;52.870;9.578;2024-03-23T07:15:05;14.37;;;3.30;;
3543;SDS011;1786;52.870;9.578;2024-03-23T07:17:31;20.00;;;4.63;;
3543;SDS011;1786;52.870;9.578;2024-03-23T07:19:58;15.37;;;4.77;;
3543;SDS011;1786;52.870;9.578;2024-03-23T07:22:24;21.50;;;4.97;;
3543;SDS011;1786;52.870;9.578;2024-03-23T07:24:49;20.80;;;4.40;;
3543;SDS011;1786;52.870;9.578;2024-03-23T07:27:15;13.67;;;3.77;;
3543;SDS011;1786;52.870;9.578;2024-03-23T07:29:41;12.60;;;2.70;;
3543;SDS011;1786;52.870;9.578;2024-03-23T07:32:06;9.97;;;4.00;;
3543;SDS011;1786;52.870;9.578;2024-03-23T07:34:32;10.80;;;4.00;;
3543;SDS011;1786;52.870;9.578;2024-03-23T07:36:58;17.50;;;4.90;;
3543;SDS011;1786;52.870;9.578;2024-03-23T07:39:23;19.03;;;3.30;;
3543;SDS011;1786;52.870;9.578;2024-03-23T07:41:50;13.23;;;3.10;;
3543;SDS011;1786;52.870;9.578;2024-03-23T07:44:16;18.13;;;4.53;;
3543;SDS011;1786;52.870;9.578;2024-03-23T07:46:42;10.90;;;2.97;;
3543;SDS011;1786;52.870;9.578;2024-03-23T07:49:07;13.40;;;3.60;;
3543;SDS011;1786;52.870;9.578;2024-03-23T07:51:33;16.33;;;3.50;;
3543;SDS011;1786;52.870;9.578;2024-03-23T07:54:00;17.07;;;4.00;;
3543;SDS011;1786;52.870;9.578;2024-03-23T07:56:26;11.37;;;4.70;;
3543;SDS011;1786;52.870;9.578;2024-03-23T07:58:51;11.10;;;3.90;;
3543;SDS011;1786;52.870;9.578;2024-03-23T08:01:17;15.13;;;4.03;;
3543;SDS011;1786;52.870;9.578;2024-03-23T08:03:44;9.43;;;3.83;;
3543;SDS011;1786;52.870;9.578;2024-03-23T08:06:17;12.90;;;3.60;;
3543;SDS011;1786;52.870;9.578;2024-03-23T08:08:45;11.50;;;3.40;;
3543;SDS011;1786;52.870;9.578;2024-03-23T08:11:13;10.67;;;3.90;;
3543;SDS011;1786;52.870;9.578;2024-03-23T08:13:39;12.50;;;3.50;;
3543;SDS011;1786;52.870;9.578;2024-03-23T08:16:06;13.63;;;4.20;;
3543;SDS011;1786;52.870;9.578;2024-03-23T08:18:34;12.23;;;3.43;;
3543;SDS011;1786;52.870;9.578;2024-03-23T08:21:03;15.90;;;3.93;;
3543;SDS011;1786;52.870;9.578;2024-03-23T08:23:31;13.53;;;4.23;;
3543;SDS011;1786;52.870;9.578;2024-03-23T08:28:34;14.10;;;3.63;;
3543;SDS011;1786;52.870;9.578;2024-03-23T08:31:01;18.83;;;3.70;;
3543;SDS011;1786;52.870;9.578;2024-03-23T08:33:29;13.07;;;4.47;;
3543;SDS011;1786;52.870;9.578;2024-03-23T08:35:59;12.53;;;3.73;;
3543;SDS011;1786;52.870;9.578;2024-03-23T08:38:26;19.07;;;3.97;;
3543;SDS011;1786;52.870;9.578;2024-03-23T08:40:59;8.07;;;3.20;;
3543;SDS011;1786;52.870;9.578;2024-03-23T08:43:28;16.73;;;4.23;;
3543;SDS011;1786;52.870;9.578;2024-03-23T08:48:34;12.27;;;3.50;;
3543;SDS011;1786;52.870;9.578;2024-03-23T08:51:07;14.00;;;3.70;;
3543;SDS011;1786;52.870;9.578;2024-03-23T08:53:37;13.30;;;3.47;;
3543;SDS011;1786;52.870;9.578;2024-03-23T08:56:04;14.80;;;3.87;;
3543;SDS011;1786;52.870;9.578;2024-03-23T08:58:31;14.70;;;2.90;;
3543;SDS011;1786;52.870;9.578;2024-03-23T09:01:04;13.23;;;3.57;;
3543;SDS011;1786;52.870;9.578;2024-03-23T09:03:34;12.33;;;3.50;;
3543;SDS011;1786;52.870;9.578;2024-03-23T09:06:01;12.53;;;3.90;;
3543;SDS011;1786;52.870;9.578;2024-03-23T09:08:28;14.50;;;3.27;;
3543;SDS011;1786;52.870;9.578;2024-03-23T09:10:53;13.50;;;3.43;;
3543;SDS011;1786;52.870;9.578;2024-03-23T09:13:20;9.03;;;3.30;;
3543;SDS011;1786;52.870;9.578;2024-03-23T09:15:46;15.63;;;3.17;;
3543;SDS011;1786;52.870;9.578;2024-03-23T09:18:13;9.43;;;3.50;;
3543;SDS011;1786;52.870;9.578;2024-03-23T09:20:39;9.87;;;2.93;;
3543;SDS011;1786;52.870;9.578;2024-03-23T09:23:05;18.83;;;3.03;;
3543;SDS011;1786;52.870;9.578;2024-03-23T09:25:31;8.67;;;2.70;;
3543;SDS011;1786;52.870;9.578;2024-03-23T09:27:58;14.77;;;4.20;;
3543;SDS011;1786;52.870;9.578;2024-03-23T09:30:23;16.10;;;2.80;;
3543;SDS011;1786;52.870;9.578;2024-03-23T09:32:49;22.30;;;3.67;;
3543;SDS011;1786;52.870;9.578;2024-03-23T09:35:15;9.50;;;3.10;;
3543;SDS011;1786;52.870;9.578;2024-03-23T09:37:40;11.27;;;2.40;;
3543;SDS011;1786;52.870;9.578;2024-03-23T09:40:10;11.37;;;2.67;;
3543;SDS011;1786;52.870;9.578;2024-03-23T09:42:36;11.83;;;2.97;;
3543;SDS011;1786;52.870;9.578;2024-03-23T09:45:04;8.57;;;2.50;;
3543;SDS011;1786;52.870;9.578;2024-03-23T09:47:32;10.83;;;2.87;;
3543;SDS011;1786;52.870;9.578;2024-03-23T09:49:59;8.97;;;1.93;;
3543;SDS011;1786;52.870;9.578;2024-03-23T09:52:26;12.73;;;3.00;;
3543;SDS011;1786;52.870;9.578;2024-03-23T09:54:52;9.93;;;2.70;;
3543;SDS011;1786;52.870;9.578;2024-03-23T09:57:18;10.03;;;2.70;;
3543;SDS011;1786;52.870;9.578;2024-03-23T09:59:44;10.13;;;2.60;;
3543;SDS011;1786;52.870;9.578;2024-03-23T10:02:09;10.00;;;3.03;;
3543;SDS011;1786;52.870;9.578;2024-03-23T10:04:41;10.10;;;2.97;;
3543;SDS011;1786;52.870;9.578;2024-03-23T10:07:10;10.60;;;2.37;;
3543;SDS011;1786;52.870;9.578;2024-03-23T10:09:37;16.00;;;4.43;;
3543;SDS011;1786;52.870;9.578;2024-03-23T10:12:09;15.57;;;3.83;;
3543;SDS011;1786;52.870;9.578;2024-03-23T10:14:35;7.77;;;2.63;;
3543;SDS011;1786;52.870;9.578;2024-03-23T10:17:15;4.40;;;1.53;;
3543;SDS011;1786;52.870;9.578;2024-03-23T10:19:50;1.13;;;0.90;;
3543;SDS011;1786;52.870;9.578;2024-03-23T10:22:17;1.53;;;1.00;;
3543;SDS011;1786;52.870;9.578;2024-03-23T10:24:44;5.67;;;1.20;;
3543;SDS011;1786;52.870;9.578;2024-03-23T10:27:17;5.80;;;1.00;;
3543;SDS011;1786;52.870;9.578;2024-03-23T10:29:46;1.80;;;0.70;;
3543;SDS011;1786;52.870;9.578;2024-03-23T10:32:13;6.47;;;1.10;;
3543;SDS011;1786;52.870;9.578;2024-03-23T10:34:40;1.80;;;1.20;;
3543;SDS011;1786;52.870;9.578;2024-03-23T10:37:06;0.70;;;0.60;;
3543;SDS011;1786;52.870;9.578;2024-03-23T10:39:33;2.70;;;0.60;;
3543;SDS011;1786;52.870;9.578;2024-03-23T10:42:04;1.13;;;0.50;;
3543;SDS011;1786;52.870;9.578;2024-03-23T10:44:31;1.13;;;0.50;;
3543;SDS011;1786;52.870;9.578;2024-03-23T10:46:58;1.47;;;0.50;;
3543;SDS011;1786;52.870;9.578;2024-03-23T10:49:26;2.50;;;0.53;;
3543;SDS011;1786;52.870;9.578;2024-03-23T10:51:58;0.63;;;0.50;;
3543;SDS011;1786;52.870;9.578;2024-03-23T10:54:25;0.80;;;0.70;;
3543;SDS011;1786;52.870;9.578;2024-03-23T10:56:57;2.20;;;0.60;;
3543;SDS011;1786;52.870;9.578;2024-03-23T10:59:27;0.60;;;0.60;;
3543;SDS011;1786;52.870;9.578;2024-03-23T11:01:58;2.33;;;0.80;;
3543;SDS011;1786;52.870;9.578;2024-03-23T11:09:49;2.00;;;0.83;;
3543;SDS011;1786;52.870;9.578;2024-03-23T11:14:47;2.37;;;0.80;;
3543;SDS011;1786;52.870;9.578;2024-03-23T11:17:20;2.50;;;1.03;;
3543;SDS011;1786;52.870;9.578;2024-03-23T11:19:52;5.90;;;1.43;;
3543;SDS011;1786;52.870;9.578;2024-03-23T11:27:43;5.43;;;1.50;;
3543;SDS011;1786;52.870;9.578;2024-03-23T11:32:54;2.20;;;1.13;;
3543;SDS011;1786;52.870;9.578;2024-03-23T11:38:07;2.00;;;1.10;;
3543;SDS011;1786;52.870;9.578;2024-03-23T11:40:35;3.03;;;1.10;;
3543;SDS011;1786;52.870;9.578;2024-03-23T11:43:03;27.53;;;1.87;;
3543;SDS011;1786;52.870;9.578;2024-03-23T11:45:33;1.90;;;1.37;;
3543;SDS011;1786;52.870;9.578;2024-03-23T11:48:09;6.10;;;1.70;;
3543;SDS011;1786;52.870;9.578;2024-03-23T11:50:39;2.97;;;1.70;;
3543;SDS011;1786;52.870;9.578;2024-03-23T11:53:17;3.83;;;1.50;;
3543;SDS011;1786;52.870;9.578;2024-03-23T11:58:17;5.17;;;1.77;;
3543;SDS011;1786;52.870;9.578;2024-03-23T12:03:27;4.07;;;1.80;;
3543;SDS011;1786;52.870;9.578;2024-03-23T12:05:54;0.90;;;0.90;;
3543;SDS011;1786;52.870;9.578;2024-03-23T12:08:25;1.30;;;1.17;;
3543;SDS011;1786;52.870;9.578;2024-03-23T12:13:37;0.83;;;0.83;;
3543;SDS011;1786;52.870;9.578;2024-03-23T12:18:46;2.30;;;0.80;;
3543;SDS011;1786;52.870;9.578;2024-03-23T12:21:13;1.07;;;0.80;;
3543;SDS011;1786;52.870;9.578;2024-03-23T12:23:39;0.70;;;0.70;;
3543;SDS011;1786;52.870;9.578;2024-03-23T12:26:05;2.27;;;1.00;;
3543;SDS011;1786;52.870;9.578;2024-03-23T12:28:32;4.10;;;1.13;;
3543;SDS011;1786;52.870;9.578;2024-03-23T12:30:58;0.80;;;0.80;;
3543;SDS011;1786;52.870;9.578;2024-03-23T12:33:24;0.80;;;0.80;;
3543;SDS011;1786;52.870;9.578;2024-03-23T12:35:50;1.23;;;1.00;;
3543;SDS011;1786;52.870;9.578;2024-03-23T12:38:16;1.80;;;0.80;;
3543;SDS011;1786;52.870;9.578;2024-03-23T12:40:49;2.20;;;1.03;;
3543;SDS011;1786;52.870;9.578;2024-03-23T12:43:18;1.80;;;1.10;;
3543;SDS011;1786;52.870;9.578;2024-03-23T12:45:47;4.10;;;1.57;;
3543;SDS011;1786;52.870;9.578;2024-03-23T12:48:13;1.63;;;1.37;;
3543;SDS011;1786;52.870;9.578;2024-03-23T12:50:39;3.50;;;1.50;;
3543;SDS011;1786;52.870;9.578;2024-03-23T12:53:05;2.90;;;1.50;;
3543;SDS011;1786;52.870;9.578;2024-03-23T12:55:30;1.90;;;1.20;;
3543;SDS011;1786;52.870;9.578;2024-03-23T12:57:56;3.03;;;1.63;;
3543;SDS011;1786;52.870;9.578;2024-03-23T13:00:22;3.23;;;2.10;;
3543;SDS011;1786;52.870;9.578;2024-03-23T13:02:47;1.83;;;1.67;;
3543;SDS011;1786;52.870;9.578;2024-03-23T13:05:13;2.10;;;1.70;;
3543;SDS011;1786;52.870;9.578;2024-03-23T13:07:39;3.03;;;1.37;;
3543;SDS011;1786;52.870;9.578;2024-03-23T13:10:05;2.93;;;1.97;;
3543;SDS011;1786;52.870;9.578;2024-03-23T13:12:31;2.87;;;1.10;;
3543;SDS011;1786;52.870;9.578;2024-03-23T13:15:01;2.53;;;1.93;;
3543;SDS011;1786;52.870;9.578;2024-03-23T13:17:29;2.23;;;1.17;;
3543;SDS011;1786;52.870;9.578;2024-03-23T13:19:56;5.97;;;1.90;;
3543;SDS011;1786;52.870;9.578;2024-03-23T13:22:22;1.93;;;1.50;;
3543;SDS011;1786;52.870;9.578;2024-03-23T13:24:47;4.57;;;1.30;;
3543;SDS011;1786;52.870;9.578;2024-03-23T13:27:13;3.00;;;1.73;;
3543;SDS011;1786;52.870;9.578;2024-03-23T13:29:39;0.80;;;0.80;;
3543;SDS011;1786;52.870;9.578;2024-03-23T13:32:05;0.73;;;0.73;;
3543;SDS011;1786;52.870;9.578;2024-03-23T13:34:31;1.47;;;0.90;;
3543;SDS011;1786;52.870;9.578;2024-03-23T13:36:58;2.13;;;0.70;;
3543;SDS011;1786;52.870;9.578;2024-03-23T13:39:24;0.80;;;0.80;;
3543;SDS011;1786;52.870;9.578;2024-03-23T13:41:50;0.70;;;0.70;;
3543;SDS011;1786;52.870;9.578;2024-03-23T13:44:16;1.13;;;0.60;;
3543;SDS011;1786;52.870;9.578;2024-03-23T13:46:42;3.90;;;1.10;;
3543;SDS011;1786;52.870;9.578;2024-03-23T13:49:13;0.50;;;0.50;;
3543;SDS011;1786;52.870;9.578;2024-03-23T13:51:50;0.60;;;0.60;;
3543;SDS011;1786;52.870;9.578;2024-03-23T13:54:15;2.47;;;0.80;;
3543;SDS011;1786;52.870;9.578;2024-03-23T13:56:41;2.93;;;0.77;;
3543;SDS011;1786;52.870;9.578;2024-03-23T13:59:07;1.37;;;0.70;;
3543;SDS011;1786;52.870;9.578;2024-03-23T14:01:32;1.03;;;0.93;;
3543;SDS011;1786;52.870;9.578;2024-03-23T14:03:59;0.70;;;0.60;;
3543;SDS011;1786;52.870;9.578;2024-03-23T14:06:24;1.00;;;0.90;;
3543;SDS011;1786;52.870;9.578;2024-03-23T14:08:50;1.20;;;0.70;;
3543;SDS011;1786;52.870;9.578;2024-03-23T14:11:17;4.03;;;0.80;;
3543;SDS011;1786;52.870;9.578;2024-03-23T14:13:43;1.47;;;0.80;;
3543;SDS011;1786;52.870;9.578;2024-03-23T14:16:10;0.80;;;0.70;;
3543;SDS011;1786;52.870;9.578;2024-03-23T14:18:35;0.70;;;0.70;;
3543;SDS011;1786;52.870;9.578;2024-03-23T14:21:02;1.13;;;0.60;;
3543;SDS011;1786;52.870;9.578;2024-03-23T14:23:29;1.83;;;0.80;;
3543;SDS011;1786;52.870;9.578;2024-03-23T14:25:56;4.90;;;0.90;;
3543;SDS011;1786;52.870;9.578;2024-03-23T14:28:22;1.27;;;0.83;;
3543;SDS011;1786;52.870;9.578;2024-03-23T14:30:50;3.00;;;0.97;;
3543;SDS011;1786;52.870;9.578;2024-03-23T14:33:17;3.37;;;0.97;;
3543;SDS011;1786;52.870;9.578;2024-03-23T14:35:51;2.20;;;0.77;;
3543;SDS011;1786;52.870;9.578;2024-03-23T14:38:18;3.53;;;1.10;;
3543;SDS011;1786;52.870;9.578;2024-03-23T14:40:44;2.27;;;1.00;;
3543;SDS011;1786;52.870;9.578;2024-03-23T14:43:10;4.70;;;1.13;;
3543;SDS011;1786;52.870;9.578;2024-03-23T14:45:36;4.77;;;1.03;;
3543;SDS011;1786;52.870;9.578;2024-03-23T14:48:02;1.83;;;0.80;;
3543;SDS011;1786;52.870;9.578;2024-03-23T14:50:34;1.40;;;1.30;;
3543;SDS011;1786;52.870;9.578;2024-03-23T14:53:00;1.93;;;1.10;;
3543;SDS011;1786;52.870;9.578;2024-03-23T14:55:25;1.37;;;0.60;;
3543;SDS011;1786;52.870;9.578;2024-03-23T14:57:51;2.10;;;0.50;;
3543;SDS011;1786;52.870;9.578;2024-03-23T15:00:17;0.93;;;0.70;;
3543;SDS011;1786;52.870;9.578;2024-03-23T15:02:44;1.43;;;0.60;;
3543;SDS011;1786;52.870;9.578;2024-03-23T15:05:10;2.17;;;0.60;;
3543;SDS011;1786;52.870;9.578;2024-03-23T15:07:37;0.97;;;0.97;;
3543;SDS011;1786;52.870;9.578;2024-03-23T15:10:05;0.77;;;0.77;;
3543;SDS011;1786;52.870;9.578;2024-03-23T15:12:32;3.20;;;0.93;;
3543;SDS011;1786;52.870;9.578;2024-03-23T15:15:01;0.70;;;0.70;;
3543;SDS011;1786;52.870;9.578;2024-03-23T15:17:26;1.60;;;0.80;;
3543;SDS011;1786;52.870;9.578;2024-03-23T15:19:52;1.50;;;0.70;;
3543;SDS011;1786;52.870;9.578;2024-03-23T15:22:19;1.37;;;0.60;;
3543;SDS011;1786;52.870;9.578;2024-03-23T15:24:46;0.60;;;0.60;;
3543;SDS011;1786;52.870;9.578;2024-03-23T15:27:12;0.77;;;0.70;;
3543;SDS011;1786;52.870;9.578;2024-03-23T15:29:38;1.03;;;0.77;;
3543;SDS011;1786;52.870;9.578;2024-03-23T15:32:04;1.53;;;0.80;;
3543;SDS011;1786;52.870;9.578;2024-03-23T15:34:29;1.53;;;0.90;;
3543;SDS011;1786;52.870;9.578;2024-03-23T15:36:55;1.83;;;0.90;;
3543;SDS011;1786;52.870;9.578;2024-03-23T15:39:21;4.40;;;1.00;;
3543;SDS011;1786;52.870;9.578;2024-03-23T15:41:49;2.23;;;0.87;;
3543;SDS011;1786;52.870;9.578;2024-03-23T15:44:15;1.63;;;0.83;;
3543;SDS011;1786;52.870;9.578;2024-03-23T15:46:41;1.47;;;1.03;;
3543;SDS011;1786;52.870;9.578;2024-03-23T15:49:06;3.40;;;1.07;;
3543;SDS011;1786;52.870;9.578;2024-03-23T15:51:32;7.60;;;0.97;;
3543;SDS011;1786;52.870;9.578;2024-03-23T15:54:00;2.10;;;0.90;;
3543;SDS011;1786;52.870;9.578;2024-03-23T15:56:26;2.17;;;1.27;;
3543;SDS011;1786;52.870;9.578;2024-03-23T15:58:54;0.87;;;0.83;;
3543;SDS011;1786;52.870;9.578;2024-03-23T16:01:20;0.80;;;0.70;;
3543;SDS011;1786;52.870;9.578;2024-03-23T16:03:47;23.33;;;6.70;;
3543;SDS011;1786;52.870;9.578;2024-03-23T16:06:12;13.77;;;1.93;;
3543;SDS011;1786;52.870;9.578;2024-03-23T16:08:38;1.70;;;1.20;;
3543;SDS011;1786;52.870;9.578;2024-03-23T16:11:07;3.80;;;1.07;;
3543;SDS011;1786;52.870;9.578;2024-03-23T16:13:34;5.80;;;1.30;;
3543;SDS011;1786;52.870;9.578;2024-03-23T16:16:03;5.33;;;2.00;;
3543;SDS011;1786;52.870;9.578;2024-03-23T16:21:34;5.33;;;1.17;;
3543;SDS011;1786;52.870;9.578;2024-03-23T16:23:59;7.30;;;1.67;;
3543;SDS011;1786;52.870;9.578;2024-03-23T16:26:25;8.80;;;2.00;;
3543;SDS011;1786;52.870;9.578;2024-03-23T16:28:51;4.60;;;1.60;;
3543;SDS011;1786;52.870;9.578;2024-03-23T16:31:17;4.33;;;1.70;;
3543;SDS011;1786;52.870;9.578;2024-03-23T16:33:42;4.13;;;1.80;;
3543;SDS011;1786;52.870;9.578;2024-03-23T16:36:09;4.33;;;1.10;;